Time;durP1;ratioP1;P1;durP2;ratioP2;P2;SDS_P1;SDS_P2;PMS_P1;PMS_P2;Temp;Humidity;BMP_temperature;BMP_pressure;BME280_temperature;BME280_humidity;BME280_pressure;Samples;Min_cycle;Max_cycle;Signal;HPM_P1;HPM_P2
2023/06/04 00:00:25;;;;;;;3.33;1.42;;;13.00;99.90;;;11.46;100.00;97722.56;5007437;28;20053;-76
2023/06/04 00:02:55;;;;;;;4.35;1.50;;;12.90;99.90;;;11.30;100.00;97725.00;5010641;28;20092;-75
2023/06/04 00:05:25;;;;;;;2.40;1.17;;;12.70;99.90;;;11.38;100.00;97726.41;5007357;28;20085;-77
2023/06/04 00:07:53;;;;;;;3.53;1.40;;;12.60;99.90;;;11.39;100.00;97728.13;4992004;28;20077;-77
2023/06/04 00:10:20;;;;;;;2.65;1.40;;;12.60;99.90;;;11.50;100.00;97731.09;4997067;28;20124;-76
2023/06/04 00:12:48;;;;;;;4.35;1.20;;;12.60;99.90;;;11.47;100.00;97726.00;5011698;28;20124;-76
2023/06/04 00:15:16;;;;;;;4.32;1.30;;;12.60;99.90;;;11.09;100.00;97723.31;4992260;28;20161;-77
2023/06/04 00:17:43;;;;;;;4.03;1.40;;;12.60;99.90;;;10.96;100.00;97723.00;4997433;28;20045;-77
2023/06/04 00:20:11;;;;;;;4.40;1.27;;;12.40;99.90;;;11.09;100.00;97725.94;4990780;28;20436;-76
2023/06/04 00:22:56;;;;;;;3.25;1.20;;;12.30;99.90;;;11.15;100.00;97725.66;5009662;28;20094;-76
2023/06/04 00:25:23;;;;;;;4.72;1.20;;;12.30;99.90;;;10.98;100.00;97720.34;5008859;28;20053;-77
2023/06/04 00:27:52;;;;;;;5.65;1.40;;;12.30;99.90;;;11.00;100.00;97721.13;5005819;28;20426;-77
2023/06/04 00:30:19;;;;;;;6.22;1.98;;;12.20;99.90;;;11.10;100.00;97725.00;4990023;28;20137;-76
2023/06/04 00:32:46;;;;;;;3.97;1.35;;;12.30;99.90;;;10.95;100.00;97721.31;4987757;28;20271;-76
2023/06/04 00:35:14;;;;;;;4.35;1.00;;;12.20;99.90;;;10.72;100.00;97730.06;5005935;28;20054;-77
2023/06/04 00:37:41;;;;;;;4.38;1.08;;;12.20;99.90;;;10.61;100.00;97722.69;5006591;28;20977;-76
2023/06/04 00:40:09;;;;;;;2.65;1.00;;;12.10;99.90;;;10.53;100.00;97724.75;5010925;28;20138;-76
2023/06/04 00:42:36;;;;;;;3.33;1.10;;;12.00;99.90;;;10.60;100.00;97718.38;5006143;28;20053;-76
2023/06/04 00:45:07;;;;;;;2.55;0.90;;;11.90;99.90;;;10.57;100.00;97721.13;4989062;28;20070;-76
2023/06/04 00:47:35;;;;;;;6.95;1.40;;;11.80;99.90;;;10.52;100.00;97725.66;5004230;28;20042;-76
2023/06/04 00:50:02;;;;;;;2.65;1.30;;;11.80;99.90;;;10.60;100.00;97731.38;4999818;28;20580;-76
2023/06/04 00:52:32;;;;;;;2.28;0.90;;;11.80;99.90;;;10.57;100.00;97726.31;4996270;28;20045;-76
2023/06/04 00:55:00;;;;;;;2.67;1.20;;;11.90;99.90;;;10.39;100.00;97720.09;4991926;28;20059;-76
2023/06/04 00:57:27;;;;;;;6.38;1.40;;;11.80;99.90;;;10.37;100.00;97721.06;5010314;28;20515;-76
2023/06/04 00:59:55;;;;;;;2.40;0.93;;;11.80;99.90;;;10.32;100.00;97723.84;4995265;28;20133;-76
2023/06/04 01:02:25;;;;;;;3.83;0.93;;;11.70;99.90;;;10.31;100.00;97727.34;4985043;28;20050;-76
2023/06/04 01:05:18;;;;;;;3.83;1.10;;;11.60;99.90;;;10.26;100.00;97726.63;5009374;28;20050;-76
2023/06/04 01:07:46;;;;;;;;;;;11.60;99.90;;;10.02;100.00;97728.44;5010992;28;20045;-76
2023/06/04 01:10:15;;;;;;;2.65;1.30;;;11.50;99.90;;;9.93;100.00;97731.38;4989127;28;19940;-77
2023/06/04 01:12:43;;;;;;;3.80;1.25;;;11.30;99.90;;;9.98;100.00;97726.84;4984568;28;20529;-76
2023/06/04 01:15:14;;;;;;;6.40;1.60;;;11.20;99.90;;;9.99;100.00;97733.72;4995282;28;20085;-77
2023/06/04 01:17:46;;;;;;;2.63;1.00;;;11.20;99.90;;;9.95;100.00;97727.81;4988883;28;20046;-77
2023/06/04 01:20:43;;;;;;;3.67;1.17;;;11.20;99.90;;;9.90;100.00;97728.88;4988796;28;20128;-76
2023/06/04 01:23:38;;;;;;;5.80;1.10;;;11.10;99.90;;;9.98;100.00;97725.09;4986668;28;20057;-76
2023/06/04 01:26:06;;;;;;;9.80;1.05;;;11.10;99.90;;;9.81;100.00;97732.69;4984079;28;20460;-76
2023/06/04 01:28:35;;;;;;;4.20;1.23;;;11.10;99.90;;;9.76;100.00;97738.03;4994020;28;20480;-77
2023/06/04 01:31:07;;;;;;;3.50;0.90;;;11.10;99.90;;;9.90;100.00;97727.16;5010927;28;20085;-77
2023/06/04 01:33:35;;;;;;;;;;;11.10;99.90;;;9.93;100.00;97723.59;4980237;28;20064;-77
2023/06/04 01:36:03;;;;;;;3.97;1.05;;;11.10;99.90;;;9.84;100.00;97722.19;5005659;28;19926;-76
2023/06/04 01:38:30;;;;;;;5.45;1.02;;;11.10;99.90;;;9.79;100.00;97726.72;4992260;28;20057;-76
2023/06/04 01:41:01;;;;;;;3.10;0.88;;;11.10;99.90;;;9.55;100.00;97724.09;4994367;28;20291;-77
2023/06/04 01:43:29;;;;;;;5.50;1.10;;;10.90;99.90;;;9.46;100.00;97728.78;4991329;28;20100;-76
2023/06/04 01:45:56;;;;;;;3.00;1.10;;;10.90;99.90;;;9.51;100.00;97732.03;4973578;28;20050;-76
2023/06/04 01:48:23;;;;;;;5.03;1.17;;;10.80;99.90;;;9.58;100.00;97729.19;4988335;28;20099;-74
2023/06/04 01:50:50;;;;;;;4.72;0.90;;;10.80;99.90;;;9.69;100.00;97723.59;4969617;28;20196;-76
2023/06/04 01:53:18;;;;;;;7.28;1.33;;;10.80;99.90;;;9.76;100.00;97729.41;5006534;28;20045;-77
2023/06/04 01:55:45;;;;;;;2.40;1.05;;;10.90;99.90;;;9.62;100.00;97729.91;4988568;28;20061;-76
2023/06/04 01:58:12;;;;;;;2.47;1.05;;;10.90;99.90;;;9.52;100.00;97728.56;5004132;28;20085;-76
2023/06/04 02:00:39;;;;;;;3.70;1.10;;;10.90;99.90;;;9.56;100.00;97731.00;4975027;28;20142;-76
2023/06/04 02:03:08;;;;;;;2.63;0.93;;;10.80;99.90;;;9.64;100.00;97728.09;4986236;28;20140;-76
2023/06/04 02:05:36;;;;;;;3.70;1.05;;;10.80;99.90;;;9.67;100.00;97721.97;4981304;28;20057;-77
2023/06/04 02:08:04;;;;;;;4.10;1.13;;;10.90;99.90;;;9.68;100.00;97724.50;4983781;28;20061;-77
2023/06/04 02:10:32;;;;;;;2.75;0.95;;;10.90;99.90;;;9.60;100.00;97726.53;5005040;28;20100;-77
2023/06/04 02:13:04;;;;;;;5.03;1.15;;;10.90;99.90;;;9.71;100.00;97719.19;5001861;28;20110;-76
2023/06/04 02:15:33;;;;;;;3.25;0.98;;;10.90;99.90;;;9.67;100.00;97725.44;4988281;28;20077;-76
2023/06/04 02:18:22;;;;;;;4.72;1.17;;;10.90;99.90;;;9.72;100.00;97725.25;5012163;28;20053;-76
2023/06/04 02:20:51;;;;;;;3.22;1.02;;;10.90;99.90;;;9.69;100.00;97722.75;4985628;28;20049;-76
2023/06/04 02:23:19;;;;;;;4.00;1.13;;;10.90;99.90;;;9.62;100.00;97724.72;4989224;28;20054;-77
2023/06/04 02:25:47;;;;;;;6.40;1.00;;;10.90;99.90;;;9.59;100.00;97720.50;4992817;28;20045;-76
2023/06/04 02:28:15;;;;;;;2.42;0.85;;;10.90;99.90;;;9.50;100.00;97725.19;5007902;28;20085;-76
2023/06/04 02:30:45;;;;;;;3.08;1.10;;;10.80;99.90;;;9.50;100.00;97727.75;4995771;28;20049;-77
2023/06/04 02:33:13;;;;;;;3.30;1.02;;;10.80;99.90;;;9.46;100.00;97728.78;4979178;28;20045;-77
2023/06/04 02:35:41;;;;;;;3.65;1.13;;;10.70;99.90;;;9.40;100.00;97729.84;5000589;28;20038;-76
2023/06/04 02:38:08;;;;;;;3.65;1.15;;;10.70;99.90;;;9.23;100.00;97727.84;5008148;28;20460;-76
2023/06/04 02:40:35;;;;;;;4.03;0.77;;;10.70;99.90;;;9.21;100.00;97720.13;4990024;28;20129;-76
2023/06/04 02:43:02;;;;;;;3.75;1.20;;;10.60;99.90;;;9.20;100.00;97728.78;4988364;28;20050;-77
2023/06/04 02:45:29;;;;;;;3.42;0.85;;;10.50;99.90;;;9.14;100.00;97730.75;4985126;28;20058;-77
2023/06/04 02:47:57;;;;;;;3.78;1.17;;;10.50;99.90;;;9.02;100.00;97726.84;4986522;28;20058;-77
2023/06/04 02:50:25;;;;;;;2.70;1.10;;;10.40;99.90;;;8.86;100.00;97730.84;4989307;28;20945;-76
2023/06/04 02:52:52;;;;;;;2.55;0.90;;;10.30;99.90;;;8.67;100.00;97731.44;4986495;28;20128;-76
2023/06/04 02:55:19;;;;;;;2.75;0.95;;;10.20;99.90;;;8.68;100.00;97745.22;4987809;28;20045;-76
2023/06/04 02:57:47;;;;;;;6.15;1.10;;;10.10;99.90;;;8.67;100.00;97746.13;5005402;28;20046;-76
2023/06/04 03:00:17;;;;;;;5.35;1.02;;;10.00;99.90;;;8.63;100.00;97745.38;4990928;28;20416;-76
2023/06/04 03:02:47;;;;;;;5.65;1.45;;;10.00;99.90;;;8.77;100.00;97745.75;5000375;28;20133;-77
2023/06/04 03:05:17;;;;;;;2.72;1.13;;;10.00;99.90;;;8.72;100.00;97757.19;5001123;28;20134;-76
2023/06/04 03:07:46;;;;;;;4.28;1.30;;;10.00;99.90;;;8.69;100.00;97749.47;4991222;28;20059;-76
2023/06/04 03:10:15;;;;;;;4.40;1.00;;;10.00;99.90;;;8.66;100.00;97750.44;4989744;28;20053;-76
2023/06/04 03:12:43;;;;;;;3.20;0.80;;;10.00;99.90;;;8.53;100.00;97750.00;4992926;28;20038;-77
2023/06/04 03:15:11;;;;;;;2.45;0.80;;;9.90;99.90;;;8.57;100.00;97750.72;4980337;28;20079;-77
2023/06/04 03:17:38;;;;;;;3.38;1.15;;;9.90;99.90;;;8.64;100.00;97749.63;5004649;28;20407;-76
2023/06/04 03:20:07;;;;;;;2.83;1.00;;;9.90;99.90;;;8.61;100.00;97748.91;4993535;28;20053;-77
2023/06/04 03:22:35;;;;;;;4.57;0.95;;;9.90;99.90;;;8.62;100.00;97748.00;5009515;28;20537;-76
2023/06/04 03:25:04;;;;;;;4.55;1.10;;;9.90;99.90;;;8.53;100.00;97752.59;5009247;28;20164;-76
2023/06/04 03:27:33;;;;;;;4.38;0.90;;;9.90;99.90;;;8.37;100.00;97753.94;4996961;28;20089;-76
2023/06/04 03:30:00;;;;;;;5.53;1.23;;;9.80;99.90;;;8.45;100.00;97748.53;5011701;28;20103;-77
2023/06/04 03:32:27;;;;;;;2.40;0.85;;;9.70;99.90;;;8.51;100.00;97750.94;4997299;28;20042;-77
2023/06/04 03:34:55;;;;;;;2.38;1.02;;;9.70;99.90;;;8.42;100.00;97751.22;5010137;28;20045;-77
2023/06/04 03:37:22;;;;;;;2.78;1.23;;;9.80;99.90;;;8.31;100.00;97746.34;4992928;28;20050;-76
2023/06/04 03:39:49;;;;;;;2.90;0.98;;;9.70;99.90;;;8.29;100.00;97754.16;4998963;28;20053;-77
2023/06/04 03:42:16;;;;;;;2.72;0.98;;;9.60;99.90;;;8.35;100.00;97750.53;5014604;28;20487;-76
2023/06/04 03:44:43;;;;;;;3.10;1.13;;;9.60;99.90;;;8.45;100.00;97754.56;4997255;28;20517;-76
2023/06/04 03:47:10;;;;;;;3.80;1.02;;;9.60;99.90;;;8.54;100.00;97754.25;4996018;28;20062;-76
2023/06/04 03:49:37;;;;;;;2.03;0.80;;;9.70;99.90;;;8.49;100.00;97755.31;4997570;28;20145;-76
2023/06/04 03:52:05;;;;;;;4.63;1.00;;;9.80;99.90;;;8.44;100.00;97750.28;4993940;28;20521;-76
2023/06/04 03:54:32;;;;;;;3.53;1.20;;;9.80;99.90;;;8.43;100.00;97753.75;4991280;28;20061;-77
2023/06/04 03:57:00;;;;;;;2.95;1.30;;;9.80;99.90;;;8.44;100.00;97755.47;5012035;28;20128;-77
2023/06/04 03:59:27;;;;;;;3.80;1.10;;;9.70;99.90;;;8.57;100.00;97758.50;5010109;28;20081;-77
2023/06/04 04:01:54;;;;;;;1.92;1.00;;;9.80;99.90;;;8.54;100.00;97762.03;5020766;28;20061;-77
2023/06/04 04:04:22;;;;;;;4.40;1.00;;;9.80;99.90;;;8.53;100.00;97762.06;4983449;28;20046;-76
2023/06/04 04:06:49;;;;;;;3.33;1.08;;;9.80;99.90;;;8.60;100.00;97758.41;4973019;28;20053;-76
2023/06/04 04:09:16;;;;;;;4.72;1.17;;;9.80;99.90;;;8.72;100.00;97754.59;4993673;28;20085;-77
2023/06/04 04:11:44;;;;;;;3.08;1.00;;;9.80;99.90;;;8.81;100.00;97746.53;4994951;28;20450;-77
2023/06/04 04:14:11;;;;;;;2.03;0.88;;;9.90;99.90;;;8.92;100.00;97749.59;5001983;28;20289;-76
2023/06/04 04:16:38;;;;;;;2.83;1.10;;;10.00;99.90;;;8.97;100.00;97750.28;4990137;28;20046;-77
2023/06/04 04:19:07;;;;;;;3.05;0.98;;;10.10;99.90;;;8.99;100.00;97745.06;5007393;28;20141;-77
2023/06/04 04:21:36;;;;;;;4.28;1.02;;;10.10;99.90;;;9.15;100.00;97745.41;5014364;28;20050;-77
2023/06/04 04:24:04;;;;;;;2.28;0.93;;;10.20;99.90;;;9.23;100.00;97747.72;4990138;28;20586;-77
2023/06/04 04:26:32;;;;;;;3.03;0.88;;;10.30;99.90;;;9.27;100.00;97742.38;4999126;28;20572;-77
2023/06/04 04:28:59;;;;;;;3.22;1.13;;;10.30;99.90;;;9.28;100.00;97753.56;4977076;28;20410;-76
2023/06/04 04:31:27;;;;;;;4.20;0.90;;;10.30;99.90;;;9.40;100.00;97760.94;5003211;28;20050;-76
2023/06/04 04:33:58;;;;;;;2.10;0.95;;;10.40;99.90;;;9.44;100.00;97762.50;4991084;28;20503;-76
2023/06/04 04:36:25;;;;;;;6.38;1.02;;;10.50;99.90;;;9.49;100.00;97760.63;4992331;28;20057;-77
2023/06/04 04:38:54;;;;;;;1.77;0.82;;;10.50;99.90;;;9.58;100.00;97756.84;5009014;28;20467;-76
2023/06/04 04:41:22;;;;;;;3.30;1.10;;;10.60;99.90;;;9.76;100.00;97753.59;5010359;28;20061;-76
2023/06/04 04:43:53;;;;;;;3.80;1.05;;;10.60;99.90;;;9.85;100.00;97749.78;5016553;28;20054;-76
2023/06/04 04:46:20;;;;;;;3.95;1.20;;;10.70;99.90;;;9.96;100.00;97750.25;4995603;28;20136;-76
2023/06/04 04:48:47;;;;;;;2.63;1.00;;;10.80;99.90;;;10.10;100.00;97746.28;4990541;28;20057;-76
2023/06/04 04:51:14;;;;;;;4.15;1.00;;;11.00;99.90;;;10.16;100.00;97751.25;5009900;28;20073;-76
2023/06/04 04:53:42;;;;;;;2.20;0.88;;;11.10;99.90;;;10.34;100.00;97750.56;5009520;28;20060;-76
2023/06/04 04:56:09;;;;;;;3.15;1.00;;;11.20;99.90;;;10.38;100.00;97752.16;4986217;28;20152;-76
2023/06/04 04:58:37;;;;;;;2.30;0.90;;;11.30;99.90;;;10.46;100.00;97744.91;5004854;28;20054;-76
2023/06/04 05:01:04;;;;;;;3.15;1.00;;;11.40;99.90;;;10.58;100.00;97751.38;4991183;28;20058;-76
2023/06/04 05:03:32;;;;;;;6.80;0.90;;;11.50;99.90;;;10.59;100.00;97750.47;5005871;28;20054;-77
2023/06/04 05:05:59;;;;;;;1.98;0.90;;;11.50;99.90;;;10.67;100.00;97758.81;4996044;28;20466;-76
2023/06/04 05:08:27;;;;;;;4.05;0.88;;;11.60;99.90;;;10.94;100.00;97745.56;4974466;28;20050;-76
2023/06/04 05:10:54;;;;;;;2.15;0.85;;;11.70;99.90;;;11.09;100.00;97752.75;4993749;28;20050;-77
2023/06/04 05:13:22;;;;;;;2.08;0.90;;;11.90;99.90;;;11.22;100.00;97747.88;5009951;28;20093;-77
2023/06/04 05:15:52;;;;;;;5.57;1.00;;;12.10;99.90;;;11.39;100.00;97751.50;5005713;28;20052;-77
2023/06/04 05:18:20;;;;;;;3.40;0.98;;;12.20;99.90;;;11.55;100.00;97752.53;4997117;28;20050;-76
2023/06/04 05:20:48;;;;;;;4.72;0.80;;;12.30;99.90;;;11.72;100.00;97751.78;4996984;28;20046;-76
2023/06/04 05:23:15;;;;;;;2.58;1.02;;;12.50;99.90;;;11.85;100.00;97754.69;4989831;28;20053;-76
2023/06/04 05:25:42;;;;;;;6.45;1.30;;;12.70;99.90;;;12.00;100.00;97753.19;4982086;28;20050;-77
2023/06/04 05:28:10;;;;;;;2.42;0.80;;;12.80;99.90;;;12.10;100.00;97751.84;4996435;28;20058;-77
2023/06/04 05:30:41;;;;;;;6.55;0.90;;;12.90;99.90;;;12.21;100.00;97761.78;5011410;28;20129;-77
2023/06/04 05:33:17;;;;;;;2.70;1.10;;;13.00;99.90;;;12.42;100.00;97750.34;5008818;28;20755;-74
2023/06/04 05:35:49;;;;;;;2.63;0.90;;;13.10;99.90;;;12.54;100.00;97759.31;4997110;28;20049;-76
2023/06/04 05:38:18;;;;;;;5.15;0.93;;;13.30;99.90;;;12.63;100.00;97761.50;4967926;28;20148;-77
2023/06/04 05:40:46;;;;;;;3.83;1.30;;;13.40;99.90;;;12.76;100.00;97759.97;5011553;28;20097;-76
2023/06/04 05:43:13;;;;;;;3.30;0.93;;;13.50;99.90;;;12.90;100.00;97758.47;4987827;28;20058;-76
2023/06/04 05:45:40;;;;;;;2.65;0.90;;;13.60;99.90;;;12.98;100.00;97746.75;4990204;28;20125;-76
2023/06/04 05:48:08;;;;;;;3.63;1.15;;;13.70;99.90;;;13.15;100.00;97745.91;5006233;28;20069;-77
2023/06/04 05:50:37;;;;;;;3.35;0.90;;;13.80;99.90;;;13.30;100.00;97744.34;5005949;28;20092;-75
2023/06/04 05:53:04;;;;;;;3.13;0.85;;;14.00;99.90;;;13.54;100.00;97744.00;5008765;28;20164;-75
2023/06/04 05:55:33;;;;;;;2.55;0.82;;;14.10;99.90;;;13.63;100.00;97743.50;4999289;28;20053;-75
2023/06/04 05:58:00;;;;;;;3.53;1.00;;;14.20;99.90;;;13.85;100.00;97750.22;5010086;28;20045;-75
2023/06/04 06:00:27;;;;;;;6.68;1.10;;;14.40;99.90;;;13.89;100.00;97747.38;4980139;28;20068;-77
2023/06/04 06:02:55;;;;;;;2.63;0.90;;;14.50;99.90;;;13.92;100.00;97751.56;5009087;28;20089;-75
2023/06/04 06:05:22;;;;;;;3.67;1.02;;;14.70;99.90;;;13.98;100.00;97746.88;4995228;28;20481;-75
2023/06/04 06:07:49;;;;;;;3.15;0.98;;;14.80;99.90;;;14.04;100.00;97753.50;4996127;28;20573;-76
2023/06/04 06:10:21;;;;;;;4.15;0.98;;;14.90;99.90;;;14.21;100.00;97758.69;4985844;28;20057;-76
2023/06/04 06:12:48;;;;;;;3.53;0.85;;;14.90;99.90;;;14.28;100.00;97763.53;5006543;28;20046;-76
2023/06/04 06:15:16;;;;;;;1.75;0.80;;;15.10;99.90;;;14.68;100.00;97750.94;4987283;28;20111;-77
2023/06/04 06:17:43;;;;;;;2.35;0.77;;;15.20;99.90;;;14.91;100.00;97760.91;4984464;28;20105;-76
2023/06/04 06:20:12;;;;;;;4.43;0.80;;;15.40;99.90;;;14.90;100.00;97756.63;4993508;28;20054;-76
2023/06/04 06:22:39;;;;;;;6.68;0.70;;;15.60;99.90;;;14.84;100.00;97759.59;4996509;28;20050;-76
2023/06/04 06:25:07;;;;;;;2.13;0.95;;;15.70;99.90;;;15.25;100.00;97757.19;4986102;28;20562;-76
2023/06/04 06:27:35;;;;;;;4.28;0.90;;;15.90;99.90;;;15.26;100.00;97755.44;4992794;28;20042;-76
2023/06/04 06:30:03;;;;;;;3.60;0.90;;;15.90;99.90;;;15.25;100.00;97764.19;4985559;28;20078;-76
2023/06/04 06:32:30;;;;;;;3.30;0.82;;;16.00;99.90;;;15.14;100.00;97767.44;4990699;28;20121;-76
2023/06/04 06:34:58;;;;;;;5.30;0.88;;;16.00;99.00;;;14.90;100.00;97764.47;4990941;28;20056;-77
2023/06/04 06:37:25;;;;;;;3.08;0.80;;;16.00;99.20;;;14.85;100.00;97771.75;5002286;28;20061;-76
2023/06/04 06:39:52;;;;;;;2.35;0.80;;;15.90;99.60;;;15.00;100.00;97773.44;4993192;28;20057;-76
2023/06/04 06:42:19;;;;;;;6.18;1.00;;;15.90;99.90;;;14.85;100.00;97775.19;4991019;28;20478;-76
2023/06/04 06:44:46;;;;;;;1.60;0.80;;;15.90;99.90;;;14.70;100.00;97775.22;5005188;28;20061;-76
2023/06/04 06:47:18;;;;;;;4.65;0.90;;;15.80;99.90;;;14.77;100.00;97779.16;4999360;28;20813;-75
2023/06/04 06:49:46;;;;;;;4.95;1.23;;;15.80;99.90;;;14.86;100.00;97789.09;5000370;28;20061;-76
2023/06/04 06:52:13;;;;;;;2.13;0.98;;;15.80;99.90;;;14.82;100.00;97782.34;4985755;28;20143;-76
2023/06/04 06:54:40;;;;;;;3.80;1.00;;;15.70;99.90;;;14.80;100.00;97785.06;4988922;28;20610;-76
2023/06/04 06:57:08;;;;;;;4.43;0.70;;;15.80;99.90;;;14.87;100.00;97782.94;5005297;28;20050;-76
2023/06/04 06:59:36;;;;;;;1.88;0.90;;;15.70;99.90;;;15.24;100.00;97786.91;4991112;28;20057;-76
2023/06/04 07:02:05;;;;;;;5.25;1.10;;;15.90;99.90;;;15.37;100.00;97783.56;5006093;28;20141;-76
2023/06/04 07:04:32;;;;;;;4.40;1.10;;;16.10;99.90;;;15.68;100.00;97780.81;4995949;28;20061;-77
2023/06/04 07:07:00;;;;;;;4.00;0.93;;;16.30;99.90;;;15.83;100.00;97786.09;4975043;28;20054;-76
2023/06/04 07:09:27;;;;;;;3.25;0.80;;;16.40;99.90;;;16.16;100.00;97785.78;5006101;28;20054;-76
2023/06/04 07:11:54;;;;;;;2.92;1.00;;;16.60;99.90;;;16.16;100.00;97788.41;5001907;28;20073;-76
2023/06/04 07:14:21;;;;;;;4.75;0.85;;;16.80;99.90;;;16.33;100.00;97783.91;5005256;28;20046;-76
2023/06/04 07:16:48;;;;;;;3.25;0.85;;;;;;;16.39;100.00;97786.13;4987126;28;20576;-76
2023/06/04 07:19:15;;;;;;;5.47;1.15;;;17.20;99.20;;;16.56;100.00;97787.69;4990695;28;20111;-76
2023/06/04 07:21:42;;;;;;;5.40;0.90;;;17.30;99.40;;;16.80;100.00;97778.28;5009722;28;20126;-77
2023/06/04 07:24:11;;;;;;;3.58;0.90;;;17.40;98.50;;;16.62;100.00;97779.44;5006172;28;20454;-77
2023/06/04 07:26:38;;;;;;;1.45;0.75;;;17.60;96.60;;;16.42;100.00;97786.81;5002677;28;20465;-76
2023/06/04 07:29:05;;;;;;;3.25;0.80;;;17.60;95.90;;;16.44;100.00;97779.66;4988935;28;20057;-76
2023/06/04 07:31:32;;;;;;;2.85;1.00;;;17.50;95.80;;;16.26;100.00;97779.06;5017696;28;20084;-77
2023/06/04 07:33:59;;;;;;;3.92;0.77;;;17.40;95.20;;;16.67;100.00;97786.09;5013286;28;20057;-76
2023/06/04 07:36:27;;;;;;;3.72;0.90;;;17.50;95.70;;;16.68;100.00;97787.75;5013444;28;20049;-77
2023/06/04 07:38:54;;;;;;;2.22;0.70;;;17.70;95.20;;;16.53;100.00;97793.97;4999905;28;20070;-77
2023/06/04 07:41:22;;;;;;;3.28;1.08;;;17.50;95.30;;;16.17;100.00;97787.50;4998419;28;20050;-76
2023/06/04 07:43:49;;;;;;;2.83;1.00;;;17.40;94.80;;;16.44;100.00;97789.31;4970074;28;20107;-77
2023/06/04 07:46:18;;;;;;;1.65;0.70;;;17.40;95.50;;;16.69;100.00;97792.06;5013580;28;20590;-76
2023/06/04 07:48:46;;;;;;;2.22;0.80;;;17.40;95.00;;;17.16;100.00;97789.94;5006759;28;20054;-76
2023/06/04 07:51:13;;;;;;;2.40;0.80;;;17.70;95.60;;;17.58;100.00;97782.75;4988385;28;20049;-77
2023/06/04 07:53:42;;;;;;;1.60;0.80;;;18.00;95.60;;;17.42;100.00;97788.19;4977535;28;20037;-77
2023/06/04 07:56:09;;;;;;;7.13;0.95;;;18.20;95.30;;;17.71;100.00;97786.22;4980510;28;20451;-78
2023/06/04 07:58:37;;;;;;;3.47;0.80;;;18.50;94.60;;;17.98;100.00;97787.94;4990850;28;20123;-77
2023/06/04 08:01:04;;;;;;;5.45;0.90;;;18.60;95.00;;;17.40;100.00;97778.75;5002638;28;20478;-78
2023/06/04 08:03:31;;;;;;;2.88;0.73;;;18.50;93.90;;;17.38;100.00;97781.50;4999096;28;20652;-77
2023/06/04 08:06:00;;;;;;;4.15;0.98;;;18.40;93.80;;;17.72;100.00;97776.56;5010065;28;20046;-78
2023/06/04 08:08:31;;;;;;;4.20;1.20;;;18.50;94.60;;;17.91;100.00;97774.41;5011362;28;20069;-77
2023/06/04 08:10:58;;;;;;;2.22;0.90;;;18.70;94.20;;;18.18;100.00;97778.69;4989824;28;20502;-77
2023/06/04 08:13:25;;;;;;;5.07;0.93;;;18.80;94.20;;;18.10;100.00;97775.75;4993287;28;20128;-77
2023/06/04 08:15:53;;;;;;;3.00;1.10;;;18.90;93.40;;;18.22;100.00;97784.53;5012203;28;20054;-77
2023/06/04 08:18:20;;;;;;;4.25;1.00;;;19.00;93.70;;;18.98;100.00;97780.88;4998002;28;20077;-76
2023/06/04 08:20:47;;;;;;;5.10;0.93;;;19.20;93.70;;;18.85;100.00;97774.81;5008966;28;20529;-77
2023/06/04 08:23:14;;;;;;;3.95;0.80;;;19.50;93.20;;;19.08;100.00;97776.59;5004796;28;20057;-77
2023/06/04 08:25:42;;;;;;;3.10;0.90;;;19.60;93.00;;;18.51;100.00;97791.19;5005794;28;20448;-77
2023/06/04 08:28:09;;;;;;;4.50;1.10;;;19.70;92.50;;;18.82;100.00;97781.16;5010290;28;20058;-78
2023/06/04 08:30:40;;;;;;;5.00;1.00;;;19.60;92.70;;;19.47;100.00;97786.88;5003784;28;20041;-77
2023/06/04 08:33:07;;;;;;;2.67;0.90;;;19.80;92.70;;;19.64;100.00;97786.47;4965040;28;20041;-77
2023/06/04 08:35:37;;;;;;;1.95;0.90;;;20.10;92.30;;;19.61;100.00;97787.53;5006163;28;20049;-77
2023/06/04 08:38:04;;;;;;;2.33;0.90;;;20.30;92.20;;;19.73;100.00;97788.41;4980308;28;20081;-78
2023/06/04 08:40:34;;;;;;;3.78;0.90;;;20.30;91.70;;;19.81;100.00;97788.66;4985527;28;20053;-77
2023/06/04 08:43:01;;;;;;;4.50;0.93;;;20.20;92.00;;;20.11;100.00;97791.66;4992900;28;20506;-77
2023/06/04 08:45:33;;;;;;;3.58;1.00;;;20.30;91.90;;;20.45;100.00;97790.69;5006445;28;20082;-77
2023/06/04 08:48:00;;;;;;;4.80;1.00;;;20.50;91.60;;;21.02;100.00;97785.31;4988576;28;20125;-78
2023/06/04 08:50:28;;;;;;;4.07;1.30;;;20.80;91.80;;;20.82;100.00;97800.09;4959930;28;20065;-78
2023/06/04 08:52:56;;;;;;;2.38;1.10;;;21.10;91.00;;;21.05;97.58;97790.31;4995529;28;20049;-78
2023/06/04 08:55:23;;;;;;;4.18;0.85;;;21.30;90.50;;;21.50;97.85;97785.69;4995872;28;20054;-77
2023/06/04 08:57:51;;;;;;;3.50;1.13;;;21.70;90.50;;;21.78;96.73;97787.81;5007771;28;20132;-77
2023/06/04 09:00:20;;;;;;;1.73;0.90;;;22.20;90.40;;;21.67;94.41;97791.38;4987892;28;20058;-77
2023/06/04 09:02:49;;;;;;;3.20;0.80;;;22.60;88.30;;;22.29;93.23;97787.81;4972759;28;20533;-77
2023/06/04 09:05:22;;;;;;;3.47;1.10;;;23.00;88.70;;;21.58;93.78;97793.00;4965344;28;20121;-78
2023/06/04 09:07:54;;;;;;;3.28;1.10;;;23.10;86.30;;;21.77;92.41;97794.06;5000674;28;20086;-77
2023/06/04 09:10:27;;;;;;;2.90;0.80;;;23.20;85.30;;;22.19;89.99;97794.84;4992632;28;20049;-77
2023/06/04 09:13:00;;;;;;;4.40;0.90;;;23.50;84.80;;;21.92;91.92;97798.91;4993755;28;20053;-78
2023/06/04 09:15:27;;;;;;;5.07;1.00;;;23.70;84.60;;;21.84;89.48;97797.88;4999601;28;20589;-77
2023/06/04 09:17:54;;;;;;;4.80;0.80;;;23.80;83.40;;;22.70;91.70;97790.44;5002980;28;20042;-76
2023/06/04 09:20:23;;;;;;;3.42;0.90;;;24.10;84.00;;;22.31;88.96;97803.56;4987488;28;20065;-76
2023/06/04 09:22:50;;;;;;;4.97;1.05;;;24.50;82.40;;;22.58;89.98;97794.16;4996044;28;20137;-77
2023/06/04 09:25:24;;;;;;;1.33;0.60;;;24.80;81.90;;;22.84;88.40;97803.28;4993432;28;20778;-78
2023/06/04 09:27:53;;;;;;;2.83;0.80;;;25.10;81.50;;;23.70;87.26;97800.78;4987592;28;20049;-75
2023/06/04 09:30:22;;;;;;;3.33;1.00;;;25.20;81.30;;;23.43;84.07;97803.34;4986675;28;20049;-76
2023/06/04 09:32:50;;;;;;;6.20;0.90;;;25.30;79.60;;;23.65;82.89;97795.09;4993795;28;20100;-78
2023/06/04 09:35:19;;;;;;;8.60;0.75;;;25.60;79.50;;;23.55;81.74;97786.28;5004367;28;20099;-78
2023/06/04 09:37:58;;;;;;;3.95;0.93;;;25.70;78.00;;;23.23;83.46;97794.56;4998551;28;20163;-78
2023/06/04 09:40:37;;;;;;;1.40;0.80;;;25.60;78.00;;;24.17;81.96;97784.88;4991098;28;20064;-77
2023/06/04 09:43:05;;;;;;;3.85;0.70;;;25.70;78.70;;;24.07;82.35;97788.59;4997080;28;20062;-78
2023/06/04 09:45:35;;;;;;;4.38;1.02;;;26.00;78.20;;;23.32;80.26;97791.91;5008021;28;20050;-77
2023/06/04 09:48:04;;;;;;;3.33;0.80;;;25.90;76.40;;;23.76;77.28;97789.63;4988142;28;20054;-79
2023/06/04 09:50:41;;;;;;;4.13;0.98;;;25.60;76.00;;;24.06;76.71;97793.03;5006974;28;20263;-78
2023/06/04 09:53:22;;;;;;;3.88;0.85;;;25.70;75.50;;;24.10;73.43;97791.75;5014645;28;20054;-78
2023/06/04 09:55:58;;;;;;;;;;;26.10;74.40;;;23.93;74.43;97784.59;5008890;28;20046;-77
2023/06/04 09:58:27;;;;;;;6.75;0.88;;;26.00;75.30;;;24.11;74.53;97784.66;4997937;28;20479;-77
2023/06/04 10:00:58;;;;;;;3.83;0.90;;;25.90;74.10;;;24.71;72.80;97792.22;5011521;28;20356;-78
2023/06/04 10:03:30;;;;;;;3.28;0.88;;;26.10;73.90;;;25.57;72.06;97778.41;4990117;28;20558;-78
2023/06/04 10:05:58;;;;;;;5.60;0.82;;;26.40;74.00;;;25.26;70.51;97784.13;4996338;28;20069;-78
2023/06/04 10:08:27;;;;;;;5.72;1.00;;;26.60;73.50;;;24.76;69.54;97790.75;5003635;28;20049;-79
2023/06/04 10:11:01;;;;;;;1.20;0.70;;;26.60;71.90;;;25.19;70.56;97785.75;4981696;28;20105;-78
2023/06/04 10:13:43;;;;;;;1.50;0.80;;;26.80;72.50;;;25.39;68.15;97789.91;4973289;28;20186;-78
2023/06/04 10:16:12;;;;;;;1.98;0.80;;;26.80;70.90;;;25.05;66.60;97793.22;4995116;28;20078;-78
2023/06/04 10:19:00;;;;;;;2.08;0.88;;;26.80;70.10;;;24.91;66.71;97782.31;4990198;28;20054;-79
2023/06/04 10:21:31;;;;;;;3.60;0.90;;;26.80;69.80;;;25.51;66.32;97779.03;4973165;28;20137;-78
2023/06/04 10:23:59;;;;;;;2.35;0.90;;;26.80;70.70;;;25.23;64.48;97779.97;5003914;28;20817;-78